createdAt,value
2022-10-04T00:00:16.689Z,8.10
2022-10-04T00:01:16.665Z,7.80
2022-10-04T00:02:17.297Z,7.80
2022-10-04T00:03:19.004Z,9.60
2022-10-04T00:04:20.390Z,8.70
2022-10-04T00:05:18.584Z,8.30
2022-10-04T00:06:16.633Z,7.70
2022-10-04T00:07:16.650Z,8.70
2022-10-04T00:08:16.645Z,9.00
2022-10-04T00:09:16.593Z,8.50
2022-10-04T00:10:17.022Z,9.30
2022-10-04T00:11:17.377Z,13.40
2022-10-04T00:12:18.165Z,13.10
2022-10-04T00:13:16.553Z,12.60
2022-10-04T00:14:16.469Z,11.20
2022-10-04T00:15:16.514Z,12.30
2022-10-04T00:16:16.562Z,9.40
2022-10-04T00:17:16.506Z,9.80
2022-10-04T00:18:16.514Z,10.20
2022-10-04T00:19:16.575Z,10.30
2022-10-04T00:20:16.450Z,9.50
2022-10-04T00:21:16.483Z,9.90
2022-10-04T00:22:16.514Z,10.70
2022-10-04T00:23:16.462Z,9.80
2022-10-04T00:24:16.466Z,9.30
2022-10-04T00:25:16.586Z,10.90
2022-10-04T00:26:16.370Z,10.40
2022-10-04T00:27:16.358Z,10.30
2022-10-04T00:28:16.413Z,10.40
2022-10-04T00:29:16.322Z,9.90
2022-10-04T00:30:16.311Z,10.70
2022-10-04T00:31:16.362Z,12.10
2022-10-04T00:32:17.758Z,11.00
2022-10-04T00:33:21.374Z,11.10
2022-10-04T00:34:17.698Z,11.00
2022-10-04T00:35:16.492Z,12.10
2022-10-04T00:36:16.270Z,10.30
2022-10-04T00:37:16.295Z,9.70
2022-10-04T00:38:16.271Z,9.50
2022-10-04T00:39:16.255Z,9.60
2022-10-04T00:40:16.254Z,8.80
2022-10-04T00:41:16.227Z,9.60
2022-10-04T00:42:16.187Z,10.30
2022-10-04T00:43:16.204Z,10.70
2022-10-04T00:44:16.199Z,11.00
2022-10-04T00:45:16.203Z,8.70
2022-10-04T00:46:16.344Z,7.40
2022-10-04T00:47:16.161Z,7.90
2022-10-04T00:48:16.180Z,7.70
2022-10-04T00:49:16.157Z,8.10
2022-10-04T00:50:16.135Z,7.70
2022-10-04T00:51:16.107Z,7.80
2022-10-04T00:52:16.948Z,8.00
2022-10-04T00:53:16.091Z,7.60
2022-10-04T00:54:16.108Z,7.10
2022-10-04T00:55:16.097Z,6.70
2022-10-04T00:56:16.087Z,7.40
2022-10-04T00:57:16.128Z,6.40
2022-10-04T00:58:16.052Z,6.80
2022-10-04T00:59:16.032Z,6.10
2022-10-04T01:00:49.520Z,6.20
2022-10-04T01:01:15.991Z,6.40
2022-10-04T01:02:16.002Z,8.80
2022-10-04T01:03:15.942Z,9.30
2022-10-04T01:04:15.980Z,9.60
2022-10-04T01:05:15.896Z,8.70
2022-10-04T01:06:15.911Z,6.20
2022-10-04T01:07:15.972Z,6.50
2022-10-04T01:08:15.911Z,6.20
2022-10-04T01:09:15.884Z,6.70
2022-10-04T01:10:15.904Z,13.30
2022-10-04T01:11:15.856Z,6.50
2022-10-04T01:12:16.556Z,6.40
2022-10-04T01:13:15.821Z,6.30
2022-10-04T01:14:15.789Z,6.70
2022-10-04T01:15:15.838Z,6.50
2022-10-04T01:16:15.930Z,6.90
2022-10-04T01:17:15.792Z,6.90
2022-10-04T01:18:15.776Z,6.60
2022-10-04T01:19:15.830Z,7.30
2022-10-04T01:20:15.782Z,6.90
2022-10-04T01:21:15.757Z,9.70
2022-10-04T01:22:15.726Z,7.50
2022-10-04T01:23:16.582Z,7.20
2022-10-04T01:24:15.709Z,6.40
2022-10-04T01:25:15.718Z,6.60
2022-10-04T01:26:15.650Z,6.80
2022-10-04T01:27:15.685Z,6.60
2022-10-04T01:28:15.706Z,6.70
2022-10-04T01:29:15.645Z,6.90
2022-10-04T01:30:15.641Z,7.50
2022-10-04T01:31:15.662Z,7.60
2022-10-04T01:32:15.622Z,9.30
2022-10-04T01:33:15.603Z,6.70
2022-10-04T01:34:15.628Z,7.20
2022-10-04T01:35:15.617Z,8.30
2022-10-04T01:36:15.587Z,7.10
2022-10-04T01:37:15.558Z,7.30
2022-10-04T01:38:15.542Z,7.10
2022-10-04T01:39:15.519Z,7.20
2022-10-04T01:40:15.529Z,7.50
2022-10-04T01:41:15.562Z,8.20
2022-10-04T01:42:15.499Z,6.70
2022-10-04T01:43:15.531Z,6.60
2022-10-04T01:44:15.466Z,7.00
2022-10-04T01:45:15.480Z,7.40
2022-10-04T01:46:15.525Z,6.90
2022-10-04T01:47:15.501Z,7.30
2022-10-04T01:48:15.471Z,7.20
2022-10-04T01:49:15.423Z,7.00
2022-10-04T01:50:16.417Z,6.60
2022-10-04T01:51:15.423Z,6.50
2022-10-04T01:52:15.450Z,7.80
2022-10-04T01:53:15.411Z,7.20
2022-10-04T01:54:15.364Z,7.10
2022-10-04T01:55:15.355Z,8.80
2022-10-04T01:56:15.362Z,8.80
2022-10-04T01:57:15.366Z,8.80
2022-10-04T01:58:15.356Z,9.10
2022-10-04T01:59:15.319Z,8.00
2022-10-04T02:00:15.494Z,8.50
2022-10-04T02:01:15.302Z,8.20
2022-10-04T02:02:15.287Z,8.00
2022-10-04T02:03:15.324Z,7.70
2022-10-04T02:04:18.582Z,7.80
2022-10-04T02:05:16.255Z,7.40
2022-10-04T02:06:15.225Z,8.10
2022-10-04T02:07:15.271Z,8.00
2022-10-04T02:08:15.247Z,7.70
2022-10-04T02:09:15.205Z,7.50
2022-10-04T02:10:15.211Z,7.40
2022-10-04T02:11:15.183Z,7.90
2022-10-04T02:12:15.176Z,7.70
2022-10-04T02:13:15.183Z,7.80
2022-10-04T02:14:15.150Z,7.70
2022-10-04T02:15:15.228Z,8.90
2022-10-04T02:16:15.173Z,8.10
2022-10-04T02:17:15.078Z,7.30
2022-10-04T02:18:15.133Z,7.90
2022-10-04T02:19:15.091Z,7.70
2022-10-04T02:20:15.064Z,7.90
2022-10-04T02:21:15.037Z,8.50
2022-10-04T02:22:15.043Z,7.60
2022-10-04T02:23:15.024Z,7.80
2022-10-04T02:24:15.045Z,7.50
2022-10-04T02:25:15.047Z,7.70
2022-10-04T02:26:15.003Z,7.60
2022-10-04T02:27:15.013Z,8.50
2022-10-04T02:28:15.048Z,7.80
2022-10-04T02:29:14.953Z,8.50
2022-10-04T02:30:14.958Z,8.20
2022-10-04T02:31:14.985Z,8.20
2022-10-04T02:32:14.941Z,8.60
2022-10-04T02:33:14.932Z,8.30
2022-10-04T02:34:14.949Z,8.80
2022-10-04T02:35:14.909Z,9.10
2022-10-04T02:36:14.893Z,8.90
2022-10-04T02:37:14.893Z,8.60
2022-10-04T02:38:14.909Z,9.90
2022-10-04T02:39:14.916Z,9.60
2022-10-04T02:40:14.860Z,9.40
2022-10-04T02:41:14.799Z,9.20
2022-10-04T02:42:14.833Z,10.50
2022-10-04T02:43:14.803Z,10.70
2022-10-04T02:44:14.849Z,9.40
2022-10-04T02:45:14.821Z,10.00
2022-10-04T02:46:14.833Z,10.50
2022-10-04T02:47:14.745Z,9.60
2022-10-04T02:48:14.801Z,11.40
2022-10-04T02:49:14.829Z,10.60
2022-10-04T02:50:14.814Z,10.30
2022-10-04T02:51:14.747Z,8.80
2022-10-04T02:52:14.722Z,8.50
2022-10-04T02:53:14.706Z,9.10
2022-10-04T02:54:14.722Z,9.90
2022-10-04T02:55:14.670Z,9.80
2022-10-04T02:56:14.709Z,10.40
2022-10-04T02:57:14.677Z,9.40
2022-10-04T02:58:14.658Z,15.00
2022-10-04T02:59:14.619Z,18.70
2022-10-04T03:00:14.613Z,11.10
2022-10-04T03:01:14.671Z,13.50
2022-10-04T03:02:14.936Z,10.40
2022-10-04T03:03:14.685Z,14.20
2022-10-04T03:04:15.550Z,9.90
2022-10-04T03:05:14.609Z,10.30
2022-10-04T03:06:14.540Z,10.60
2022-10-04T03:07:14.558Z,10.40
2022-10-04T03:08:14.519Z,10.20
2022-10-04T03:09:14.523Z,9.70
2022-10-04T03:10:14.510Z,10.90
2022-10-04T03:11:14.510Z,10.40
2022-10-04T03:12:14.589Z,8.60
2022-10-04T03:13:14.522Z,9.80
2022-10-04T03:14:14.462Z,10.50
2022-10-04T03:15:14.446Z,11.10
2022-10-04T03:16:14.581Z,9.90
2022-10-04T03:17:14.463Z,9.00
2022-10-04T03:18:14.418Z,10.00
2022-10-04T03:19:14.418Z,9.20
2022-10-04T03:20:14.418Z,9.10
2022-10-04T03:21:14.406Z,8.50
2022-10-04T03:22:14.394Z,9.50
2022-10-04T03:23:14.411Z,8.80
2022-10-04T03:24:14.380Z,9.10
2022-10-04T03:25:14.331Z,9.60
2022-10-04T03:26:14.411Z,9.60
2022-10-04T03:27:14.412Z,10.00
2022-10-04T03:28:14.392Z,11.00
2022-10-04T03:29:14.318Z,10.20
2022-10-04T03:30:14.361Z,10.30
2022-10-04T03:31:14.303Z,10.70
2022-10-04T03:32:14.235Z,10.40
2022-10-04T03:33:14.291Z,10.80
2022-10-04T03:34:14.221Z,11.20
2022-10-04T03:35:14.267Z,10.10
2022-10-04T03:36:14.206Z,10.00
2022-10-04T03:37:14.209Z,10.70
2022-10-04T03:38:14.210Z,10.60
2022-10-04T03:39:14.211Z,10.10
2022-10-04T03:40:14.174Z,10.40
2022-10-04T03:41:14.162Z,9.60
2022-10-04T03:42:14.148Z,9.70
2022-10-04T03:43:14.148Z,9.60
2022-10-04T03:44:14.157Z,10.20
2022-10-04T03:45:14.101Z,10.30
2022-10-04T03:46:14.176Z,11.30
2022-10-04T03:47:14.130Z,11.20
2022-10-04T03:48:14.091Z,9.90
2022-10-04T03:49:14.086Z,10.10
2022-10-04T03:50:14.097Z,10.30
2022-10-04T03:51:14.099Z,9.60
2022-10-04T03:52:14.037Z,10.20
2022-10-04T03:53:14.010Z,9.80
2022-10-04T03:54:14.026Z,9.30
2022-10-04T03:55:14.035Z,9.30
2022-10-04T03:56:14.031Z,10.40
2022-10-04T03:57:13.984Z,10.00
2022-10-04T03:58:13.978Z,9.80
2022-10-04T03:59:13.984Z,9.70
2022-10-04T04:00:13.982Z,9.50
2022-10-04T04:01:14.588Z,9.40
2022-10-04T04:02:13.953Z,9.80
2022-10-04T04:03:13.960Z,9.70
2022-10-04T04:04:13.926Z,10.00
2022-10-04T04:05:13.934Z,10.00
2022-10-04T04:06:13.900Z,9.50
2022-10-04T04:07:13.914Z,9.50
2022-10-04T04:08:13.868Z,9.50
2022-10-04T04:09:13.847Z,9.20
2022-10-04T04:10:16.755Z,9.40
2022-10-04T04:11:14.853Z,9.50
2022-10-04T04:12:13.828Z,9.00
2022-10-04T04:13:13.792Z,9.30
2022-10-04T04:14:13.781Z,9.40
2022-10-04T04:15:13.770Z,9.30
2022-10-04T04:16:13.809Z,10.40
2022-10-04T04:17:13.856Z,9.50
2022-10-04T04:18:13.747Z,10.60
2022-10-04T04:19:13.739Z,10.10
2022-10-04T04:20:13.744Z,10.20
2022-10-04T04:21:13.705Z,9.90
2022-10-04T04:22:13.697Z,9.70
2022-10-04T04:23:13.740Z,11.10
2022-10-04T04:24:13.656Z,10.60
2022-10-04T04:25:13.664Z,10.40
2022-10-04T04:26:13.678Z,10.50
2022-10-04T04:27:13.737Z,10.70
2022-10-04T04:28:13.709Z,10.40
2022-10-04T04:29:13.619Z,11.20
2022-10-04T04:30:13.580Z,9.70
2022-10-04T04:31:13.683Z,10.90
2022-10-04T04:32:13.708Z,11.00
2022-10-04T04:33:15.695Z,10.90
2022-10-04T04:34:13.578Z,10.90
2022-10-04T04:35:13.570Z,10.70
2022-10-04T04:36:13.540Z,10.60
2022-10-04T04:37:13.599Z,11.10
2022-10-04T04:38:13.633Z,10.70
2022-10-04T04:39:13.523Z,12.20
2022-10-04T04:40:13.542Z,10.90
2022-10-04T04:41:14.505Z,11.80
2022-10-04T04:42:13.468Z,11.20
2022-10-04T04:43:13.561Z,11.50
2022-10-04T04:44:13.492Z,11.70
2022-10-04T04:45:13.445Z,11.00
2022-10-04T04:46:27.056Z,11.80
2022-10-04T04:47:18.186Z,11.60
2022-10-04T04:48:14.442Z,11.00
2022-10-04T04:49:13.470Z,9.90
2022-10-04T04:50:13.451Z,11.00
2022-10-04T04:51:13.470Z,11.10
2022-10-04T04:52:13.381Z,11.10
2022-10-04T04:53:13.448Z,9.80
2022-10-04T04:54:13.357Z,10.40
2022-10-04T04:55:13.345Z,10.60
2022-10-04T04:56:17.424Z,9.80
2022-10-04T04:57:14.333Z,9.90
2022-10-04T04:58:13.321Z,10.30
2022-10-04T04:59:13.286Z,10.40
2022-10-04T05:00:13.333Z,10.40
2022-10-04T05:01:13.377Z,10.60
2022-10-04T05:02:13.342Z,10.10
2022-10-04T05:03:13.247Z,9.80
2022-10-04T05:04:13.253Z,10.70
2022-10-04T05:05:13.261Z,10.90
2022-10-04T05:06:13.231Z,11.20
2022-10-04T05:07:13.272Z,11.60
2022-10-04T05:08:13.271Z,10.20
2022-10-04T05:09:13.276Z,10.40
2022-10-04T05:10:13.187Z,10.70
2022-10-04T05:11:13.187Z,10.30
2022-10-04T05:12:13.141Z,10.10
2022-10-04T05:13:13.143Z,10.40
2022-10-04T05:14:13.144Z,10.70
2022-10-04T05:15:13.135Z,10.60
2022-10-04T05:16:13.214Z,10.60
2022-10-04T05:17:13.096Z,10.40
2022-10-04T05:18:13.103Z,10.90
2022-10-04T05:19:13.048Z,11.10
2022-10-04T05:20:13.100Z,11.50
2022-10-04T05:21:13.059Z,10.90
2022-10-04T05:22:13.061Z,11.70
2022-10-04T05:23:13.100Z,11.30
2022-10-04T05:24:13.033Z,11.70
2022-10-04T05:25:13.844Z,11.20
2022-10-04T05:26:13.068Z,11.00
2022-10-04T05:27:13.085Z,11.50
2022-10-04T05:28:13.593Z,10.80
2022-10-04T05:29:12.971Z,11.80
2022-10-04T05:30:13.509Z,11.70
2022-10-04T05:31:13.041Z,11.10
2022-10-04T05:32:13.021Z,11.10
2022-10-04T05:33:12.934Z,11.00
2022-10-04T05:34:13.400Z,11.20
2022-10-04T05:35:12.900Z,11.50
2022-10-04T05:36:13.010Z,11.40
2022-10-04T05:37:12.877Z,11.70
2022-10-04T05:38:12.841Z,11.10
2022-10-04T05:39:12.855Z,11.50
2022-10-04T05:40:12.889Z,11.10
2022-10-04T05:41:12.885Z,12.00
2022-10-04T05:42:12.825Z,12.10
2022-10-04T05:43:12.805Z,12.20
2022-10-04T05:44:12.813Z,12.00
2022-10-04T05:45:12.789Z,12.50
2022-10-04T05:46:12.837Z,12.50
2022-10-04T05:47:12.786Z,11.80
2022-10-04T05:48:12.751Z,11.40
2022-10-04T05:49:18.142Z,12.60
2022-10-04T05:50:14.757Z,11.50
2022-10-04T05:51:12.710Z,11.20
2022-10-04T05:52:12.742Z,11.30
2022-10-04T05:53:12.707Z,10.60
2022-10-04T05:54:12.761Z,11.30
2022-10-04T05:55:12.713Z,10.60
2022-10-04T05:56:12.675Z,11.10
2022-10-04T05:57:12.672Z,9.90
2022-10-04T05:58:12.653Z,10.80
2022-10-04T05:59:12.626Z,10.70
2022-10-04T06:00:12.670Z,10.50
2022-10-04T06:01:13.671Z,9.90
2022-10-04T06:02:12.652Z,10.20
2022-10-04T06:03:12.645Z,9.80
2022-10-04T06:04:12.650Z,9.60
2022-10-04T06:05:12.578Z,9.40
2022-10-04T06:06:12.559Z,9.90
2022-10-04T06:07:12.584Z,9.90
2022-10-04T06:08:12.498Z,9.30
2022-10-04T06:09:12.570Z,9.10
2022-10-04T06:10:12.530Z,9.60
2022-10-04T06:11:12.481Z,9.90
2022-10-04T06:12:12.476Z,9.40
2022-10-04T06:13:12.471Z,9.50
2022-10-04T06:14:12.435Z,10.90
2022-10-04T06:15:12.442Z,10.40
2022-10-04T06:16:12.488Z,9.70
2022-10-04T06:17:12.423Z,9.70
2022-10-04T06:18:13.106Z,10.40
2022-10-04T06:19:12.467Z,10.60
2022-10-04T06:20:12.399Z,11.30
2022-10-04T06:21:12.391Z,11.20
2022-10-04T06:22:12.343Z,13.10
2022-10-04T06:23:12.422Z,14.40
2022-10-04T06:24:12.462Z,13.00
2022-10-04T06:25:13.381Z,13.10
2022-10-04T06:26:12.327Z,13.80
2022-10-04T06:27:12.295Z,13.70
2022-10-04T06:28:12.375Z,15.20
2022-10-04T06:29:13.039Z,14.80
2022-10-04T06:30:12.248Z,14.40
2022-10-04T06:31:12.291Z,14.50
2022-10-04T06:32:13.319Z,14.00
2022-10-04T06:33:12.246Z,14.40
2022-10-04T06:34:12.266Z,13.80
2022-10-04T06:35:12.215Z,13.70
2022-10-04T06:36:12.222Z,13.20
2022-10-04T06:37:12.211Z,13.40
2022-10-04T06:38:12.211Z,14.40
2022-10-04T06:39:12.204Z,14.90
2022-10-04T06:40:12.159Z,15.70
2022-10-04T06:41:12.179Z,16.60
2022-10-04T06:42:12.139Z,15.20
2022-10-04T06:43:12.142Z,15.40
2022-10-04T06:44:12.148Z,16.40
2022-10-04T06:45:12.111Z,16.20
2022-10-04T06:46:12.139Z,16.10
2022-10-04T06:47:12.060Z,15.80
2022-10-04T06:48:12.112Z,15.40
2022-10-04T06:49:12.049Z,16.70
2022-10-04T06:50:12.068Z,16.50
2022-10-04T06:51:12.047Z,16.10
2022-10-04T06:52:15.452Z,15.80
2022-10-04T06:53:14.053Z,15.70
2022-10-04T06:54:12.081Z,15.50
2022-10-04T06:55:12.002Z,13.00
2022-10-04T06:56:12.021Z,13.00
2022-10-04T06:57:12.093Z,12.60
2022-10-04T06:58:11.973Z,12.30
2022-10-04T06:59:11.940Z,12.90
2022-10-04T07:00:11.953Z,11.50
2022-10-04T07:01:11.970Z,11.70
2022-10-04T07:02:11.954Z,11.50
2022-10-04T07:03:11.879Z,12.10
2022-10-04T07:04:11.869Z,11.60
2022-10-04T07:05:11.878Z,11.20
2022-10-04T07:06:11.934Z,11.60
2022-10-04T07:07:11.860Z,11.50
2022-10-04T07:08:11.882Z,11.60
2022-10-04T07:09:11.870Z,11.20
2022-10-04T07:10:11.837Z,11.50
2022-10-04T07:11:12.534Z,11.20
2022-10-04T07:12:13.111Z,11.70
2022-10-04T07:13:11.906Z,11.60
2022-10-04T07:14:11.797Z,12.20
2022-10-04T07:15:11.817Z,12.80
2022-10-04T07:16:11.894Z,12.40
2022-10-04T07:17:11.826Z,12.60
2022-10-04T07:18:11.743Z,12.60
2022-10-04T07:19:11.849Z,12.70
2022-10-04T07:20:11.707Z,12.10
2022-10-04T07:21:11.692Z,11.30
2022-10-04T07:22:11.693Z,11.50
2022-10-04T07:23:11.659Z,12.20
2022-10-04T07:24:11.687Z,12.30
2022-10-04T07:25:11.626Z,12.60
2022-10-04T07:26:11.618Z,12.00
2022-10-04T07:27:11.629Z,12.10
2022-10-04T07:28:11.703Z,11.90
2022-10-04T07:29:11.619Z,13.00
2022-10-04T07:30:11.731Z,12.70
2022-10-04T07:31:11.690Z,12.20
2022-10-04T07:32:11.571Z,11.90
2022-10-04T07:33:11.582Z,12.10
2022-10-04T07:34:11.569Z,12.60
2022-10-04T07:35:11.522Z,13.30
2022-10-04T07:36:11.518Z,12.80
2022-10-04T07:37:11.543Z,12.60
2022-10-04T07:38:11.531Z,12.10
2022-10-04T07:39:11.465Z,12.70
2022-10-04T07:40:11.517Z,12.80
2022-10-04T07:41:11.466Z,12.30
2022-10-04T07:42:11.455Z,12.30
2022-10-04T07:43:11.472Z,13.00
2022-10-04T07:44:11.462Z,12.60
2022-10-04T07:45:11.465Z,13.50
2022-10-04T07:46:11.468Z,12.80
2022-10-04T07:47:11.390Z,13.40
2022-10-04T07:48:11.414Z,13.80
2022-10-04T07:49:11.398Z,13.80
2022-10-04T07:50:11.375Z,13.20
2022-10-04T07:51:11.343Z,13.00
2022-10-04T07:52:11.429Z,13.20
2022-10-04T07:53:11.362Z,13.20
2022-10-04T07:54:11.346Z,12.80
2022-10-04T07:55:11.331Z,13.80
2022-10-04T07:56:11.288Z,13.20
2022-10-04T07:57:11.296Z,13.90
2022-10-04T07:58:11.284Z,14.30
2022-10-04T07:59:11.567Z,12.70
2022-10-04T08:00:11.310Z,13.10
2022-10-04T08:01:11.271Z,13.10
2022-10-04T08:02:11.307Z,12.80
2022-10-04T08:03:11.281Z,12.30
2022-10-04T08:04:11.239Z,12.90
2022-10-04T08:05:11.171Z,13.40
2022-10-04T08:06:11.185Z,14.20
2022-10-04T08:07:11.200Z,13.90
2022-10-04T08:08:11.181Z,14.20
2022-10-04T08:09:11.167Z,13.80
2022-10-04T08:10:11.189Z,13.80
2022-10-04T08:11:11.120Z,14.10
2022-10-04T08:12:11.145Z,13.60
2022-10-04T08:13:11.116Z,13.20
2022-10-04T08:14:11.111Z,13.10
2022-10-04T08:15:11.223Z,12.60
2022-10-04T08:16:11.121Z,12.50
2022-10-04T08:17:15.359Z,12.00
2022-10-04T08:18:12.068Z,12.30
2022-10-04T08:19:11.064Z,12.60
2022-10-04T08:20:11.180Z,12.00
2022-10-04T08:21:11.037Z,11.40
2022-10-04T08:22:11.005Z,12.10
2022-10-04T08:23:11.005Z,11.40
2022-10-04T08:24:11.001Z,11.60
2022-10-04T08:25:11.037Z,11.70
2022-10-04T08:26:10.996Z,11.40
2022-10-04T08:27:11.924Z,10.90
2022-10-04T08:28:11.044Z,10.70
2022-10-04T08:29:10.953Z,11.20
2022-10-04T08:30:10.956Z,10.90
2022-10-04T08:31:10.973Z,11.20
2022-10-04T08:32:10.945Z,10.70
2022-10-04T08:33:10.949Z,10.80
2022-10-04T08:34:10.865Z,10.70
2022-10-04T08:35:10.918Z,10.70
2022-10-04T08:36:10.935Z,11.00
2022-10-04T08:37:11.646Z,10.80
2022-10-04T08:38:10.846Z,10.70
2022-10-04T08:39:10.822Z,10.50
2022-10-04T08:40:13.215Z,11.10
2022-10-04T08:41:11.818Z,11.40
2022-10-04T08:42:10.802Z,10.60
2022-10-04T08:43:10.855Z,10.60
2022-10-04T08:44:10.765Z,9.60
2022-10-04T08:45:10.848Z,10.10
2022-10-04T08:46:10.816Z,9.70
2022-10-04T08:47:10.780Z,9.90
2022-10-04T08:48:10.862Z,9.90
2022-10-04T08:49:10.766Z,9.70
2022-10-04T08:50:10.746Z,9.20
2022-10-04T08:51:10.742Z,9.60
2022-10-04T08:52:10.702Z,9.20
2022-10-04T08:53:11.222Z,9.20
2022-10-04T08:54:11.710Z,9.30
2022-10-04T08:55:10.706Z,9.80
2022-10-04T08:56:10.714Z,9.60
2022-10-04T08:57:15.709Z,9.80
2022-10-04T08:58:11.611Z,9.90
2022-10-04T08:59:10.645Z,9.80
2022-10-04T09:00:10.699Z,10.10
2022-10-04T09:01:10.705Z,10.20
2022-10-04T09:02:10.603Z,10.10
2022-10-04T09:03:10.594Z,10.50
2022-10-04T09:04:10.535Z,9.80
2022-10-04T09:05:10.634Z,10.80
2022-10-04T09:06:10.621Z,11.20
2022-10-04T09:07:10.518Z,11.40
2022-10-04T09:08:10.571Z,10.70
2022-10-04T09:09:10.543Z,11.20
2022-10-04T09:10:10.507Z,10.80
2022-10-04T09:11:10.666Z,11.00
2022-10-04T09:12:10.520Z,11.30
2022-10-04T09:13:10.487Z,11.20
2022-10-04T09:14:10.563Z,11.20
2022-10-04T09:15:10.439Z,11.60
2022-10-04T09:16:10.462Z,10.70
2022-10-04T09:17:10.505Z,10.70
2022-10-04T09:18:10.433Z,11.00
2022-10-04T09:19:10.415Z,11.80
2022-10-04T09:20:36.669Z,11.60
2022-10-04T09:21:12.439Z,11.90
2022-10-04T09:22:10.427Z,11.30
2022-10-04T09:23:10.435Z,11.40
2022-10-04T09:24:10.395Z,11.10
2022-10-04T09:25:10.347Z,11.40
2022-10-04T09:26:10.344Z,12.50
2022-10-04T09:27:10.397Z,12.80
2022-10-04T09:28:10.393Z,12.40
2022-10-04T09:29:10.289Z,12.10
2022-10-04T09:30:10.340Z,12.40
2022-10-04T09:31:10.406Z,12.90
2022-10-04T09:32:10.949Z,12.40
2022-10-04T09:33:10.371Z,12.20
2022-10-04T09:34:10.263Z,12.40
2022-10-04T09:35:10.316Z,12.40
2022-10-04T09:36:10.251Z,12.40
2022-10-04T09:37:10.268Z,12.50
2022-10-04T09:38:10.204Z,12.20
2022-10-04T09:39:29.389Z,12.80
2022-10-04T09:40:12.256Z,13.60
2022-10-04T09:41:10.172Z,12.50
2022-10-04T09:42:10.185Z,12.20
2022-10-04T09:43:10.266Z,13.30
2022-10-04T09:44:10.192Z,13.10
2022-10-04T09:45:10.130Z,12.80
2022-10-04T09:46:10.201Z,11.80
2022-10-04T09:47:10.157Z,12.10
2022-10-04T09:48:10.129Z,11.70
2022-10-04T09:49:10.177Z,12.10
2022-10-04T09:50:10.197Z,11.60
2022-10-04T09:51:10.048Z,12.00
2022-10-04T09:52:10.045Z,11.90
2022-10-04T09:53:10.041Z,11.70
2022-10-04T09:54:10.048Z,11.30
2022-10-04T09:55:10.077Z,11.30
2022-10-04T09:56:10.017Z,10.80
2022-10-04T09:57:10.161Z,10.70
2022-10-04T09:58:10.097Z,10.40
2022-10-04T09:59:11.029Z,9.80
2022-10-04T10:00:09.969Z,9.80
2022-10-04T10:01:09.933Z,10.20
2022-10-04T10:02:10.037Z,10.40
2022-10-04T10:03:14.779Z,9.90
2022-10-04T10:04:12.049Z,9.70
2022-10-04T10:05:10.029Z,10.10
2022-10-04T10:06:09.893Z,10.50
2022-10-04T10:07:10.425Z,9.60
2022-10-04T10:08:09.926Z,9.70
2022-10-04T10:09:10.024Z,9.60
2022-10-04T10:10:10.057Z,9.60
2022-10-04T10:11:09.862Z,9.50
2022-10-04T10:12:10.369Z,9.00
2022-10-04T10:13:10.867Z,8.60
2022-10-04T10:14:10.841Z,8.70
2022-10-04T10:15:09.837Z,8.50
2022-10-04T10:16:09.873Z,8.40
2022-10-04T10:17:09.786Z,8.10
2022-10-04T10:18:09.810Z,7.90
2022-10-04T10:19:09.778Z,7.80
2022-10-04T10:20:09.749Z,8.00
2022-10-04T10:21:09.922Z,7.80
2022-10-04T10:22:09.670Z,8.40
2022-10-04T10:23:09.699Z,7.50
2022-10-04T10:24:09.676Z,8.30
2022-10-04T10:25:09.775Z,8.00
2022-10-04T10:26:09.801Z,7.80
2022-10-04T10:27:10.836Z,7.20
2022-10-04T10:28:09.702Z,7.20
2022-10-04T10:29:09.623Z,7.40
2022-10-04T10:30:09.936Z,7.90
2022-10-04T10:31:09.924Z,7.80
2022-10-04T10:32:09.655Z,7.80
2022-10-04T10:33:09.661Z,8.40
2022-10-04T10:34:09.650Z,7.60
2022-10-04T10:35:10.126Z,7.40
2022-10-04T10:36:09.624Z,7.60
2022-10-04T10:37:09.543Z,7.40
2022-10-04T10:38:09.546Z,7.60
2022-10-04T10:39:09.606Z,7.20
2022-10-04T10:40:09.479Z,7.00
2022-10-04T10:41:09.551Z,7.20
2022-10-04T10:42:09.542Z,7.60
2022-10-04T10:43:09.630Z,7.20
2022-10-04T10:44:09.498Z,6.90
2022-10-04T10:45:09.454Z,8.20
2022-10-04T10:46:10.068Z,7.00
2022-10-04T10:47:09.451Z,7.30
2022-10-04T10:48:10.604Z,6.80
2022-10-04T10:49:09.544Z,7.30
2022-10-04T10:50:09.447Z,7.20
2022-10-04T10:51:09.404Z,6.90
2022-10-04T10:52:09.479Z,6.60
2022-10-04T10:53:09.594Z,5.90
2022-10-04T10:54:09.988Z,5.20
2022-10-04T10:55:09.355Z,4.60
2022-10-04T10:56:10.011Z,5.20
2022-10-04T10:57:09.464Z,4.90
2022-10-04T10:58:09.679Z,5.10
2022-10-04T10:59:09.316Z,4.70
2022-10-04T11:00:09.440Z,5.30
2022-10-04T11:01:09.333Z,5.00
2022-10-04T11:02:09.428Z,4.70
2022-10-04T11:03:13.452Z,5.00
2022-10-04T11:05:31.893Z,4.90
2022-10-04T11:05:33.416Z,5.10
2022-10-04T11:06:33.408Z,5.10
2022-10-04T11:07:33.364Z,5.30
2022-10-04T11:08:33.336Z,5.40
2022-10-04T11:09:33.359Z,4.90
2022-10-04T11:10:33.340Z,4.50
2022-10-04T11:11:33.409Z,4.20
2022-10-04T11:12:33.576Z,4.10
2022-10-04T11:13:34.313Z,4.10
2022-10-04T11:14:33.362Z,4.00
2022-10-04T11:15:33.334Z,4.20
2022-10-04T11:16:33.303Z,4.30
2022-10-04T11:17:33.432Z,4.50
2022-10-04T11:18:33.411Z,4.20
2022-10-04T11:19:33.404Z,4.20
2022-10-04T11:20:33.217Z,4.00
2022-10-04T11:21:33.295Z,4.00
2022-10-04T11:22:38.077Z,4.00
2022-10-04T11:23:35.213Z,4.30
2022-10-04T11:24:33.223Z,4.40
2022-10-04T11:25:33.253Z,4.40
2022-10-04T11:26:34.401Z,4.20
2022-10-04T11:27:33.313Z,4.50
2022-10-04T11:28:33.586Z,4.40
2022-10-04T11:29:33.392Z,4.30
2022-10-04T11:30:33.154Z,4.40
2022-10-04T11:31:33.251Z,4.60
2022-10-04T11:32:33.186Z,4.70
2022-10-04T11:33:33.097Z,5.40
2022-10-04T11:34:33.309Z,4.30
2022-10-04T11:35:33.353Z,4.70
2022-10-04T11:36:33.146Z,4.20
2022-10-04T11:37:33.066Z,4.60
2022-10-04T11:38:33.046Z,4.70
2022-10-04T11:39:33.069Z,4.10
2022-10-04T11:40:33.100Z,4.40
2022-10-04T11:41:33.074Z,4.70
2022-10-04T11:42:33.885Z,5.00
2022-10-04T11:43:33.083Z,4.20
2022-10-04T11:44:32.983Z,4.10
2022-10-04T11:45:32.942Z,4.10
2022-10-04T11:46:33.095Z,4.00
2022-10-04T11:47:32.971Z,4.10
2022-10-04T11:48:32.964Z,4.10
2022-10-04T11:49:32.955Z,4.40
2022-10-04T11:50:32.910Z,4.50
2022-10-04T11:51:32.891Z,4.40
2022-10-04T11:52:32.958Z,4.30
2022-10-04T11:53:32.954Z,4.10
2022-10-04T11:54:32.882Z,4.30
2022-10-04T11:55:32.879Z,4.10
2022-10-04T11:56:32.823Z,4.00
2022-10-04T11:57:32.839Z,4.00
2022-10-04T11:58:38.211Z,4.00
2022-10-04T11:59:32.882Z,4.40
2022-10-04T12:00:32.819Z,4.10
2022-10-04T12:01:32.787Z,4.00
2022-10-04T12:02:32.835Z,4.10
2022-10-04T12:03:32.901Z,4.00
2022-10-04T12:04:32.940Z,4.20
2022-10-04T12:05:32.812Z,3.80
2022-10-04T12:06:32.876Z,3.90
2022-10-04T12:07:33.720Z,3.80
2022-10-04T12:08:32.732Z,3.70
2022-10-04T12:09:32.727Z,4.10
2022-10-04T12:10:32.748Z,4.20
2022-10-04T12:11:32.663Z,4.30
2022-10-04T12:12:32.667Z,4.30
2022-10-04T12:13:33.671Z,4.30
2022-10-04T12:14:32.681Z,4.50
2022-10-04T12:15:32.651Z,3.90
2022-10-04T12:16:32.633Z,4.10
2022-10-04T12:17:32.650Z,4.80
2022-10-04T12:18:32.608Z,4.00
2022-10-04T12:19:32.671Z,3.90
2022-10-04T12:20:32.649Z,4.10
2022-10-04T12:21:32.557Z,4.50
2022-10-04T12:22:32.804Z,4.20
2022-10-04T12:23:32.562Z,4.00
2022-10-04T12:24:32.606Z,3.80
2022-10-04T12:25:33.199Z,3.80
2022-10-04T12:26:32.668Z,4.00
2022-10-04T12:27:32.504Z,3.60
2022-10-04T12:28:32.521Z,4.30
2022-10-04T12:29:32.500Z,3.80
2022-10-04T12:30:32.476Z,4.20
2022-10-04T12:31:32.495Z,4.20
2022-10-04T12:32:32.485Z,4.00
2022-10-04T12:33:32.449Z,3.80
2022-10-04T12:34:33.353Z,4.00
2022-10-04T12:35:32.494Z,3.50
2022-10-04T12:36:33.000Z,3.80
2022-10-04T12:37:32.440Z,3.50
2022-10-04T12:38:32.437Z,3.60
2022-10-04T12:39:33.013Z,3.60
2022-10-04T12:40:32.632Z,3.60
2022-10-04T12:41:32.376Z,3.60
2022-10-04T12:42:32.818Z,3.20
2022-10-04T12:43:33.677Z,3.50
2022-10-04T12:44:32.357Z,3.20
2022-10-04T12:45:32.392Z,3.30
2022-10-04T12:46:32.333Z,3.60
2022-10-04T12:47:32.309Z,3.60
2022-10-04T12:48:32.355Z,3.30
2022-10-04T12:49:32.401Z,3.40
2022-10-04T12:50:32.265Z,3.60
2022-10-04T12:51:32.300Z,3.30
2022-10-04T12:52:32.265Z,3.40
2022-10-04T12:53:32.229Z,3.60
2022-10-04T12:54:32.357Z,3.40
2022-10-04T12:55:32.261Z,3.60
2022-10-04T12:56:32.730Z,3.60
2022-10-04T12:57:32.162Z,3.20
2022-10-04T12:58:32.204Z,3.00
2022-10-04T12:59:32.162Z,3.20
2022-10-04T13:00:32.162Z,3.30
2022-10-04T13:01:32.194Z,3.10
2022-10-04T13:02:32.295Z,3.10
2022-10-04T13:03:32.141Z,2.90
2022-10-04T13:04:32.183Z,3.10
2022-10-04T13:05:33.088Z,3.00